Latest Weather Observations for Marree Airport

IDS60801

Issued at 7:31 pm CST Monday 22 April 2019 (issued every 10 minutes, with the page automatically refreshed every 10 minutes)

About weather observations | Map of weather stations | Latest weather observations for SA | Other Formats
Station Details ID: 017126 Name: MARREE AERO Lat: -29.66 Lon: 138.07 Height: 50.0 m
Data from the previous 72 hours. | See also: Recent months at Marree Airport
Date/Time
CST
Temp
°C
App
Temp
°C
Dew
Point
°C
Rel
Hum
%
Delta-T
°C
Wind Press
QNH
hPa
Press
MSL
hPa
Rain since
9am
mm
Dir  Spd
km/h
Gust
km/h
Spd
kts
Gust
kts
22/07:30pm 23.9 19.1 8.7 38 8.1 ESE 24 33 13 18 1021.9 1021.7 0.0
22/07:00pm 24.4 19.6 8.8 37 8.4 ESE 24 30 13 16 1021.3 1021.1 0.0
22/06:30pm 25.9 22.0 8.8 34 9.3 SSE 19 30 10 16 1020.6 1020.4 0.0
22/06:00pm 26.4 24.3 9.7 35 9.2 S 11 15 6 8 1020.4 1020.2 0.0
22/05:30pm 26.6 24.5 9.9 35 9.3 S 11 15 6 8 1020.1 1019.9 0.0
22/05:00pm 26.7 24.1 9.5 34 9.5 SSE 13 19 7 10 1019.8 1019.6 0.0
22/04:30pm 26.9 25.2 9.7 34 9.5 S 9 11 5 6 1019.7 1019.5 0.0
22/04:00pm 26.7 24.9 9.5 34 9.5 SSE 9 17 5 9 1019.6 1019.4 0.0
22/03:30pm 27.1 25.8 9.9 34 9.6 SSE 7 19 4 10 1019.5 1019.3 0.0
22/03:00pm 26.6 24.5 9.9 35 9.3 SSW 11 17 6 9 1019.6 1019.4 0.0
22/02:30pm 27.4 24.8 10.6 35 9.5 SSW 15 22 8 12 1019.6 1019.4 0.0
22/02:00pm 27.0 25.4 10.2 35 9.4 S 9 15 5 8 1019.9 1019.7 0.0
22/01:30pm 25.8 23.8 10.0 37 8.7 S 11 20 6 11 1020.1 1019.9 0.0
22/01:00pm 24.9 23.2 10.0 39 8.2 S 9 15 5 8 1020.4 1020.2 0.0
22/12:30pm 25.4 22.7 10.4 39 8.3 SSE 15 22 8 12 1020.7 1020.5 0.0
22/12:00pm 24.3 21.6 10.2 41 7.8 SSE 15 24 8 13 1021.1 1020.9 0.0
22/11:30am 23.3 20.2 10.4 44 7.1 SE 17 24 9 13 1021.5 1021.3 0.0
22/11:00am 23.1 19.7 10.5 45 7.0 SE 19 32 10 17 1021.9 1021.7 0.0
22/10:30am 21.9 18.3 10.4 48 6.3 SE 20 28 11 15 1022.2 1022.0 0.0
22/10:00am 20.9 17.3 10.4 51 5.7 SSE 20 28 11 15 1022.2 1022.0 0.0
22/09:30am 20.3 15.8 10.1 52 5.5 SSE 24 30 13 16 1022.2 1022.0 0.0
22/09:00am 19.6 15.2 10.3 55 5.0 S 24 30 13 16 1022.1 1021.9 0.0
22/08:30am 18.5 12.9 10.3 59 4.4 S 30 35 16 19 1021.9 1021.7 0.0
22/08:00am 17.3 12.2 10.7 65 3.5 S 28 33 15 18 1021.7 1021.5 0.0
22/07:30am 16.4 12.1 10.7 69 3.0 S 24 30 13 16 1021.2 1021.0 0.0
22/07:00am 15.5 11.6 10.9 74 2.5 S 22 28 12 15 1020.8 1020.6 0.0
22/06:30am 15.6 11.8 11.2 75 2.4 S 22 28 12 15 1020.4 1020.2 0.0
22/06:00am 15.3 11.4 10.9 75 2.3 S 22 26 12 14 1019.9 1019.7 0.0
22/05:30am 15.4 11.8 10.4 72 2.6 S 20 26 11 14 1019.9 1019.7 0.0
22/05:00am 15.5 10.3 10.1 70 2.8 S 28 33 15 18 1019.7 1019.5 0.0
22/04:30am 15.8 9.6 10.1 69 3.0 S 33 41 18 22 1019.4 1019.2 0.0
22/04:00am 16.1 9.1 10.0 67 3.2 S 37 46 20 25 1019.1 1018.9 0.0
22/03:30am 16.4 9.0 10.0 66 3.4 S 39 48 21 26 1018.9 1018.7 0.0
22/03:00am 16.7 9.0 10.1 65 3.5 S 41 50 22 27 1018.7 1018.5 0.0
22/02:30am 16.7 9.0 10.1 65 3.5 S 41 54 22 29 1018.2 1018.0 0.0
22/02:00am 16.7 10.2 10.3 66 3.4 S 35 46 19 25 1018.9 1018.7 0.0
22/01:30am 16.6 10.6 10.7 68 3.1 S 33 41 18 22 1019.2 1019.0 0.0
22/01:00am 16.7 9.6 10.8 68 3.2 S 39 48 21 26 1018.9 1018.7 0.0
22/12:30am 17.2 10.9 11.0 67 3.3 SSW 35 44 19 24 1019.5 1019.3 0.0
22/12:00am 17.4 10.8 11.2 67 3.4 S 37 44 20 24 1019.1 1018.9 0.0
 
Date/Time
CST
Temp
°C
App
Temp
°C
Dew
Point
°C
Rel
Hum
%
Delta-T
°C
Wind Press
QNH
hPa
Press
MSL
hPa
Rain since
9am
mm
Dir  Spd
km/h
Gust
km/h
Spd
kts
Gust
kts
21/11:30pm 17.3 11.5 10.9 66 3.4 SSW 32 44 17 24 1019.8 1019.6 0.0
21/11:00pm 17.6 10.9 9.8 60 4.1 S 35 43 19 23 1020.0 1019.8 0.0
21/10:30pm 17.7 9.7 9.1 57 4.5 S 41 48 22 26 1020.1 1019.9 0.0
21/10:00pm 18.2 11.3 8.7 54 4.9 S 35 46 19 25 1020.2 1020.0 0.0
21/09:30pm 17.8 10.7 9.4 58 4.4 SSW 37 46 20 25 1020.1 1019.9 0.0
21/09:00pm 17.7 10.2 10.8 64 3.7 S 41 52 22 28 1019.3 1019.1 0.0
21/08:30pm 19.3 11.9 9.8 54 5.1 S 39 50 21 27 1019.4 1019.2 0.0
21/08:00pm 19.8 13.6 10.0 53 5.3 S 33 43 18 23 1019.3 1019.1 0.0
21/07:30pm 20.3 14.1 9.5 50 5.7 S 32 43 17 23 1018.9 1018.7 0.0
21/07:00pm 20.6 13.1 9.5 49 5.9 S 39 54 21 29 1018.6 1018.4 0.0
21/06:30pm 21.8 13.8 9.0 44 6.8 S 41 56 22 30 1018.0 1017.8 0.0
21/06:00pm 23.8 16.3 7.8 36 8.4 SSW 37 44 20 24 1017.7 1017.5 0.0
21/05:30pm 24.9 17.7 7.5 33 9.2 SSW 35 43 19 23 1017.5 1017.3 0.0
21/05:00pm 25.8 18.5 7.4 31 9.8 SSW 35 43 19 23 1017.1 1016.9 0.0
21/04:30pm 26.7 20.0 8.2 31 10.0 S 33 41 18 22 1016.9 1016.7 0.0
21/04:00pm 27.5 20.9 8.4 30 10.4 SSW 33 43 18 23 1016.7 1016.5 0.0
21/03:30pm 27.1 20.1 8.5 31 10.1 S 35 46 19 25 1016.6 1016.4 0.0
21/03:00pm 28.5 22.3 9.2 30 10.7 S 32 41 17 22 1016.7 1016.5 0.0
21/02:30pm 27.7 21.0 9.5 32 10.1 S 35 43 19 23 1016.7 1016.5 0.0
21/02:00pm 28.1 22.8 9.9 32 10.2 S 28 39 15 21 1016.6 1016.4 0.0
21/01:30pm 27.9 22.3 10.1 33 10.0 S 30 41 16 22 1016.8 1016.6 0.0
21/01:00pm 27.0 21.4 10.2 35 9.4 S 30 41 16 22 1017.1 1016.9 0.0
21/12:30pm 27.1 21.3 10.8 36 9.2 S 32 39 17 21 1017.4 1017.2 0.0
21/12:00pm 27.4 21.7 11.0 36 9.3 S 32 39 17 21 1017.7 1017.5 0.0
21/11:30am 26.2 20.6 11.5 40 8.4 S 32 39 17 21 1017.9 1017.7 0.0
21/11:00am 26.2 19.5 12.3 42 8.0 S 39 48 21 26 1018.0 1017.8 0.0
21/10:30am 25.0 18.8 12.6 46 7.1 S 37 46 20 25 1017.9 1017.7 0.0
21/10:00am 22.8 17.4 12.7 53 5.8 S 33 43 18 23 1018.0 1017.8 0.0
21/09:30am 21.6 16.7 12.7 57 5.1 S 30 35 16 19 1018.1 1017.9 0.0
21/09:00am 20.7 15.8 12.7 60 4.5 S 30 35 16 19 1018.1 1017.9 0.0
21/08:30am 20.2 15.4 12.9 63 4.1 S 30 39 16 21 1017.9 1017.7 0.0
21/08:00am 20.1 15.3 12.8 63 4.1 S 30 35 16 19 1017.5 1017.3 0.0
21/07:30am 19.9 16.3 12.9 64 4.0 SSE 24 28 13 15 1017.4 1017.2 0.0
21/07:00am 19.6 16.3 12.8 65 3.8 S 22 28 12 15 1017.2 1017.0 0.0
21/06:30am 19.6 15.2 12.8 65 3.8 S 28 35 15 19 1016.5 1016.3 0.0
21/06:00am 19.9 15.2 13.1 65 3.9 S 30 39 16 21 1016.2 1016.0 0.0
21/05:30am 20.2 14.9 13.2 64 4.0 S 33 41 18 22 1015.9 1015.7 0.0
21/05:00am 21.0 16.3 13.2 61 4.5 S 30 37 16 20 1015.8 1015.6 0.0
21/04:30am 21.8 18.8 12.4 55 5.3 S 20 30 11 16 1015.6 1015.4 0.0
21/04:00am 22.5 18.2 10.6 47 6.6 SSW 24 28 13 15 1015.3 1015.1 0.0
21/03:30am 19.9 15.3 1.8 30 8.3 SSE 15 17 8 9 1014.7 1014.5 0.0
21/03:00am 19.9 16.4 1.4 29 8.4 SE 9 11 5 6 1014.6 1014.4 0.0
21/02:30am 20.4 17.4 2.3 30 8.4 ESE 7 9 4 5 1014.5 1014.3 0.0
21/02:00am 20.9 19.3 2.7 30 8.6 CALM 0 0 0 0 1014.8 1014.6 0.0
21/01:30am 20.4 18.7 1.8 29 8.6 CALM 0 0 0 0 1014.9 1014.7 0.0
21/01:00am 21.9 17.9 3.1 29 9.0 NE 13 15 7 8 1014.8 1014.6 0.0
21/12:30am 22.3 18.7 2.9 28 9.2 NE 11 13 6 7 1014.9 1014.7 0.0
21/12:00am 22.6 18.7 3.2 28 9.3 NE 13 15 7 8 1014.9 1014.7 0.0
 
Date/Time
CST
Temp
°C
App
Temp
°C
Dew
Point
°C
Rel
Hum
%
Delta-T
°C
Wind Press
QNH
hPa
Press
MSL
hPa
Rain since
9am
mm
Dir  Spd
km/h
Gust
km/h
Spd
kts
Gust
kts
20/11:30pm 22.8 18.1 3.4 28 9.4 ENE 17 17 9 9 1015.0 1014.8 0.0
20/11:00pm 22.0 17.9 2.2 27 9.3 ENE 13 13 7 7 1015.3 1015.1 0.0
20/10:30pm 22.7 19.5 2.8 27 9.5 NE 9 13 5 7 1015.6 1015.4 0.0
20/10:00pm 23.1 19.1 3.1 27 9.6 NE 13 15 7 8 1015.6 1015.4 0.0
20/09:30pm 23.3 20.0 2.7 26 9.9 NNE 9 11 5 6 1015.9 1015.7 0.0
20/09:00pm 24.0 22.6 3.3 26 10.1 CALM 0 4 0 2 1016.1 1015.9 0.0
20/08:30pm 24.5 21.9 4.3 27 10.0 WNW 7 9 4 5 1015.9 1015.7 0.0
20/08:00pm 25.1 21.8 4.3 26 10.4 WNW 11 13 6 7 1015.9 1015.7 0.0
20/07:30pm 26.0 21.4 3.9 24 11.0 WNW 17 17 9 9 1015.8 1015.6 0.0
20/07:00pm 27.3 23.2 4.4 23 11.6 WNW 15 15 8 8 1015.4 1015.2 0.0
20/06:30pm 28.5 24.0 4.1 21 12.4 NW 17 22 9 12 1015.0 1014.8 0.0
20/06:00pm 29.7 25.2 4.4 20 13.0 NNW 17 20 9 11 1014.9 1014.7 0.0
20/05:30pm 30.6 26.5 4.4 19 13.6 NNW 15 20 8 11 1014.9 1014.7 0.0
20/05:00pm 31.2 25.3 4.1 18 14.0 NNW 24 33 13 18 1014.8 1014.6 0.0
20/04:30pm 31.7 25.8 3.7 17 14.4 N 24 33 13 18 1014.7 1014.5 0.0
20/04:00pm 31.9 26.0 3.8 17 14.5 NNW 24 32 13 17 1014.8 1014.6 0.0
20/03:30pm 32.0 26.5 3.9 17 14.5 NNW 22 32 12 17 1014.8 1014.6 0.0
20/03:00pm 32.5 27.3 3.5 16 14.9 N 20 35 11 19 1015.0 1014.8 0.0
20/02:30pm 31.9 26.6 3.0 16 14.7 N 20 32 11 17 1015.2 1015.0 0.0
20/02:00pm 32.8 25.7 3.7 16 15.1 N 30 41 16 22 1015.5 1015.3 0.0
20/01:30pm 32.4 26.0 3.4 16 14.9 N 26 39 14 21 1016.1 1015.9 0.0
20/01:00pm 31.5 24.8 3.5 17 14.4 N 28 41 15 22 1016.6 1016.4 0.0
20/12:30pm 32.1 24.9 3.1 16 14.8 NNW 30 41 16 22 1017.2 1017.0 0.0
20/12:08pm 31.9 25.1 3.0 16 14.7 N 28 46 15 25 1017.5 1017.3 0.0
20/12:00pm 32.0 24.8 3.1 16 14.7 N 30 44 16 24 1017.5 1017.3 0.0
20/11:47am 31.7 24.1 2.8 16 14.7 N 32 50 17 27 1017.9 1017.7 0.0
20/11:30am 31.6 24.5 3.6 17 14.4 N 30 35 16 19 1018.1 1017.9 0.0
20/11:00am 30.7 24.8 3.7 18 13.8 NNE 24 33 13 18 1018.5 1018.3 0.0
20/10:30am 30.1 24.6 4.0 19 13.4 NNE 22 30 12 16 1018.8 1018.6 0.0
20/10:00am 28.8 23.6 3.6 20 12.7 NNE 20 30 11 16 1019.2 1019.0 0.0
20/09:30am 27.5 22.2 3.2 21 12.1 NNE 20 26 11 14 1019.4 1019.2 0.0
20/09:00am 26.0 20.8 3.3 23 11.2 NE 20 26 11 14 1019.4 1019.2 0.0
20/08:30am 24.6 19.4 2.7 24 10.6 NE 19 24 10 13 1019.4 1019.2 0.0
20/08:00am 22.0 18.0 2.7 28 9.2 NE 13 17 7 9 1019.3 1019.1 0.0
20/07:30am 20.5 16.4 2.3 30 8.4 NE 13 17 7 9 1018.9 1018.7 0.0
20/07:00am 19.2 15.5 2.1 32 7.8 NE 11 13 6 7 1018.6 1018.4 0.0
20/06:30am 18.1 14.7 1.6 33 7.4 NE 9 11 5 6 1018.4 1018.2 0.0
20/06:00am 18.4 15.0 1.9 33 7.5 NNE 9 11 5 6 1018.3 1018.1 0.0
20/05:30am 18.9 15.5 1.9 32 7.7 NNE 9 11 5 6 1018.2 1018.0 0.0
20/05:00am 19.5 16.6 2.4 32 7.9 NNE 7 9 4 5 1017.7 1017.5 0.0
20/04:30am 20.0 17.0 1.9 30 8.3 NE 7 11 4 6 1017.7 1017.5 0.0
20/04:00am 19.9 16.5 1.8 30 8.3 NE 9 13 5 7 1017.6 1017.4 0.0
20/03:30am 19.9 16.0 1.4 29 8.4 NE 11 17 6 9 1017.7 1017.5 0.0
20/03:00am 21.2 16.7 2.0 28 8.9 NE 15 19 8 10 1017.8 1017.6 0.0
20/02:30am 20.4 15.8 1.8 29 8.5 ENE 15 17 8 9 1017.9 1017.7 0.0
20/02:00am 21.5 16.6 1.7 27 9.2 ENE 17 19 9 10 1018.3 1018.1 0.0
20/01:30am 22.3 16.8 1.9 26 9.5 ENE 20 24 11 13 1018.3 1018.1 0.0
20/01:00am 21.6 16.3 1.8 27 9.2 ENE 19 20 10 11 1018.2 1018.0 0.0
20/12:30am 21.1 16.9 1.4 27 9.0 ENE 13 15 7 8 1018.4 1018.2 0.0
20/12:00am 21.1 16.9 1.4 27 9.0 ENE 13 13 7 7 1018.6 1018.4 0.0
 
Date/Time
CST
Temp
°C
App
Temp
°C
Dew
Point
°C
Rel
Hum
%
Delta-T
°C
Wind Press
QNH
hPa
Press
MSL
hPa
Rain since
9am
mm
Dir  Spd
km/h
Gust
km/h
Spd
kts
Gust
kts
19/11:30pm 22.1 17.9 1.7 26 9.5 ENE 13 17 7 9 1018.6 1018.4 0.0
19/11:00pm 22.7 18.2 2.2 26 9.7 ENE 15 15 8 8 1018.8 1018.6 0.0
19/10:30pm 22.8 18.6 1.8 25 9.8 ENE 13 15 7 8 1019.1 1018.9 0.0
19/10:00pm 22.8 18.5 1.2 24 10.0 ENE 13 15 7 8 1018.8 1018.6 0.0
19/09:30pm 23.7 19.1 1.4 23 10.4 ENE 15 17 8 9 1018.9 1018.7 0.0
19/09:00pm 24.2 19.5 1.2 22 10.7 ENE 15 15 8 8 1019.0 1018.8 0.0
19/08:30pm 24.6 21.1 1.5 22 10.9 ENE 9 11 5 6 1019.0 1018.8 0.0
19/08:00pm 25.7 21.5 1.8 21 11.4 ENE 13 13 7 7 1018.8 1018.6 0.0

Other formats

Comma delimited format used in spreadsheet applications
http://www.bom.gov.au/fwo/IDS60801/IDS60801.95480.axf

JavaScript Object Notation format (JSON) in row-major order
http://www.bom.gov.au/fwo/IDS60801/IDS60801.95480.json

Data quality

Most of these data are generated automatically and are frequently updated. Quality checks on data are not normally performed. It is possible for incorrect values to appear. Refer to information at About Latest Weather Observations and please check the disclaimer before using these data.